sensor_id;sensor_type;location;lat;lon;timestamp;P1;durP1;ratioP1;P2;durP2;ratioP2
9974;SDS011;5028;50.974;4.968;2022-10-29T00:00:27;15.40;;;6.83;;
9974;SDS011;5028;50.974;4.968;2022-10-29T00:03:02;14.37;;;6.30;;
9974;SDS011;5028;50.974;4.968;2022-10-29T00:05:31;13.03;;;6.90;;
9974;SDS011;5028;50.974;4.968;2022-10-29T00:08:06;13.40;;;7.37;;
9974;SDS011;5028;50.974;4.968;2022-10-29T00:10:35;12.27;;;6.13;;
9974;SDS011;5028;50.974;4.968;2022-10-29T00:13:09;11.90;;;6.87;;
9974;SDS011;5028;50.974;4.968;2022-10-29T00:15:40;13.17;;;7.00;;
9974;SDS011;5028;50.974;4.968;2022-10-29T00:18:15;12.70;;;6.50;;
9974;SDS011;5028;50.974;4.968;2022-10-29T00:20:44;12.57;;;6.73;;
9974;SDS011;5028;50.974;4.968;2022-10-29T00:23:20;15.30;;;7.00;;
9974;SDS011;5028;50.974;4.968;2022-10-29T00:25:48;12.50;;;6.73;;
9974;SDS011;5028;50.974;4.968;2022-10-29T00:28:23;11.63;;;6.20;;
9974;SDS011;5028;50.974;4.968;2022-10-29T00:30:54;13.97;;;6.63;;
9974;SDS011;5028;50.974;4.968;2022-10-29T00:33:30;17.83;;;6.90;;
9974;SDS011;5028;50.974;4.968;2022-10-29T00:35:59;16.40;;;6.90;;
9974;SDS011;5028;50.974;4.968;2022-10-29T00:38:35;13.30;;;7.30;;
9974;SDS011;5028;50.974;4.968;2022-10-29T00:41:04;12.73;;;7.00;;
9974;SDS011;5028;50.974;4.968;2022-10-29T00:43:42;13.40;;;6.47;;
9974;SDS011;5028;50.974;4.968;2022-10-29T00:46:23;13.60;;;7.10;;
9974;SDS011;5028;50.974;4.968;2022-10-29T00:49:04;17.87;;;7.43;;
9974;SDS011;5028;50.974;4.968;2022-10-29T00:51:33;14.50;;;6.77;;
9974;SDS011;5028;50.974;4.968;2022-10-29T00:54:09;13.80;;;6.83;;
9974;SDS011;5028;50.974;4.968;2022-10-29T00:56:40;12.70;;;6.93;;
9974;SDS011;5028;50.974;4.968;2022-10-29T00:59:20;13.63;;;6.03;;
9974;SDS011;5028;50.974;4.968;2022-10-29T01:01:50;15.83;;;6.67;;
9974;SDS011;5028;50.974;4.968;2022-10-29T01:04:27;10.77;;;6.37;;
9974;SDS011;5028;50.974;4.968;2022-10-29T01:06:58;12.67;;;6.50;;
9974;SDS011;5028;50.974;4.968;2022-10-29T01:09:33;14.47;;;7.00;;
9974;SDS011;5028;50.974;4.968;2022-10-29T01:12:07;16.47;;;6.50;;
9974;SDS011;5028;50.974;4.968;2022-10-29T01:14:56;12.47;;;7.50;;
9974;SDS011;5028;50.974;4.968;2022-10-29T01:17:38;14.03;;;6.93;;
9974;SDS011;5028;50.974;4.968;2022-10-29T01:26:53;15.50;;;7.53;;
9974;SDS011;5028;50.974;4.968;2022-10-29T01:29:48;15.47;;;7.13;;
9974;SDS011;5028;50.974;4.968;2022-10-29T01:32:31;12.43;;;6.70;;
9974;SDS011;5028;50.974;4.968;2022-10-29T01:35:14;14.90;;;7.13;;
9974;SDS011;5028;50.974;4.968;2022-10-29T01:37:49;13.07;;;7.00;;
9974;SDS011;5028;50.974;4.968;2022-10-29T01:40:33;13.10;;;6.90;;
9974;SDS011;5028;50.974;4.968;2022-10-29T01:43:19;11.67;;;6.77;;
9974;SDS011;5028;50.974;4.968;2022-10-29T01:45:54;15.10;;;7.00;;
9974;SDS011;5028;50.974;4.968;2022-10-29T01:48:36;14.13;;;7.03;;
9974;SDS011;5028;50.974;4.968;2022-10-29T01:51:17;11.87;;;6.40;;
9974;SDS011;5028;50.974;4.968;2022-10-29T01:53:48;14.67;;;7.00;;
9974;SDS011;5028;50.974;4.968;2022-10-29T01:56:24;13.83;;;6.13;;
9974;SDS011;5028;50.974;4.968;2022-10-29T01:58:53;12.43;;;5.60;;
9974;SDS011;5028;50.974;4.968;2022-10-29T02:01:34;14.27;;;5.87;;
9974;SDS011;5028;50.974;4.968;2022-10-29T02:04:16;14.13;;;5.70;;
9974;SDS011;5028;50.974;4.968;2022-10-29T02:07:12;14.77;;;6.10;;
9974;SDS011;5028;50.974;4.968;2022-10-29T02:09:50;13.90;;;6.77;;
9974;SDS011;5028;50.974;4.968;2022-10-29T02:12:30;11.53;;;6.47;;
9974;SDS011;5028;50.974;4.968;2022-10-29T02:15:05;13.50;;;6.90;;
9974;SDS011;5028;50.974;4.968;2022-10-29T02:17:44;13.33;;;7.10;;
9974;SDS011;5028;50.974;4.968;2022-10-29T02:20:15;15.40;;;7.10;;
9974;SDS011;5028;50.974;4.968;2022-10-29T02:22:50;13.27;;;7.63;;
9974;SDS011;5028;50.974;4.968;2022-10-29T02:25:19;13.23;;;7.40;;
9974;SDS011;5028;50.974;4.968;2022-10-29T02:27:53;16.53;;;7.80;;
9974;SDS011;5028;50.974;4.968;2022-10-29T02:30:23;16.43;;;7.83;;
9974;SDS011;5028;50.974;4.968;2022-10-29T02:32:57;18.00;;;8.17;;
9974;SDS011;5028;50.974;4.968;2022-10-29T02:35:27;16.10;;;8.87;;
9974;SDS011;5028;50.974;4.968;2022-10-29T02:38:02;14.00;;;8.07;;
9974;SDS011;5028;50.974;4.968;2022-10-29T02:40:31;15.43;;;8.20;;
9974;SDS011;5028;50.974;4.968;2022-10-29T02:43:06;15.67;;;8.13;;
9974;SDS011;5028;50.974;4.968;2022-10-29T02:45:41;16.80;;;8.10;;
9974;SDS011;5028;50.974;4.968;2022-10-29T02:48:16;15.67;;;8.30;;
9974;SDS011;5028;50.974;4.968;2022-10-29T02:50:46;17.43;;;7.80;;
9974;SDS011;5028;50.974;4.968;2022-10-29T02:53:21;12.67;;;7.70;;
9974;SDS011;5028;50.974;4.968;2022-10-29T02:55:50;12.57;;;8.03;;
9974;SDS011;5028;50.974;4.968;2022-10-29T02:58:24;14.90;;;7.67;;
9974;SDS011;5028;50.974;4.968;2022-10-29T03:00:53;13.67;;;7.43;;
9974;SDS011;5028;50.974;4.968;2022-10-29T03:03:29;16.57;;;8.07;;
9974;SDS011;5028;50.974;4.968;2022-10-29T03:05:59;16.90;;;7.77;;
9974;SDS011;5028;50.974;4.968;2022-10-29T03:08:33;16.30;;;8.00;;
9974;SDS011;5028;50.974;4.968;2022-10-29T03:11:02;14.97;;;8.37;;
9974;SDS011;5028;50.974;4.968;2022-10-29T03:13:37;13.93;;;7.97;;
9974;SDS011;5028;50.974;4.968;2022-10-29T03:16:06;16.10;;;8.00;;
9974;SDS011;5028;50.974;4.968;2022-10-29T03:18:41;13.20;;;7.83;;
9974;SDS011;5028;50.974;4.968;2022-10-29T03:21:11;16.80;;;7.87;;
9974;SDS011;5028;50.974;4.968;2022-10-29T03:23:46;16.80;;;8.30;;
9974;SDS011;5028;50.974;4.968;2022-10-29T03:26:15;11.93;;;7.30;;
9974;SDS011;5028;50.974;4.968;2022-10-29T03:28:50;13.00;;;7.83;;
9974;SDS011;5028;50.974;4.968;2022-10-29T03:31:19;18.57;;;7.77;;
9974;SDS011;5028;50.974;4.968;2022-10-29T03:33:53;16.53;;;7.70;;
9974;SDS011;5028;50.974;4.968;2022-10-29T03:36:24;16.67;;;8.70;;
9974;SDS011;5028;50.974;4.968;2022-10-29T03:38:58;15.70;;;8.13;;
9974;SDS011;5028;50.974;4.968;2022-10-29T03:41:27;16.40;;;8.50;;
9974;SDS011;5028;50.974;4.968;2022-10-29T03:44:08;16.20;;;8.03;;
9974;SDS011;5028;50.974;4.968;2022-10-29T03:46:37;14.80;;;8.17;;
9974;SDS011;5028;50.974;4.968;2022-10-29T03:49:11;20.67;;;8.40;;
9974;SDS011;5028;50.974;4.968;2022-10-29T03:51:42;16.77;;;7.97;;
9974;SDS011;5028;50.974;4.968;2022-10-29T03:54:16;16.47;;;7.93;;
9974;SDS011;5028;50.974;4.968;2022-10-29T03:56:45;15.50;;;8.50;;
9974;SDS011;5028;50.974;4.968;2022-10-29T03:59:20;13.00;;;7.97;;
9974;SDS011;5028;50.974;4.968;2022-10-29T04:01:49;20.47;;;7.93;;
9974;SDS011;5028;50.974;4.968;2022-10-29T04:04:24;14.87;;;7.40;;
9974;SDS011;5028;50.974;4.968;2022-10-29T04:06:54;15.17;;;8.10;;
9974;SDS011;5028;50.974;4.968;2022-10-29T04:09:29;19.23;;;7.73;;
9974;SDS011;5028;50.974;4.968;2022-10-29T04:11:57;13.87;;;7.27;;
9974;SDS011;5028;50.974;4.968;2022-10-29T04:14:32;17.07;;;7.33;;
9974;SDS011;5028;50.974;4.968;2022-10-29T04:17:08;18.07;;;7.23;;
9974;SDS011;5028;50.974;4.968;2022-10-29T04:19:44;10.63;;;7.40;;
9974;SDS011;5028;50.974;4.968;2022-10-29T04:22:14;13.10;;;7.33;;
9974;SDS011;5028;50.974;4.968;2022-10-29T04:25:10;13.20;;;7.37;;
9974;SDS011;5028;50.974;4.968;2022-10-29T04:27:58;14.10;;;7.27;;
9974;SDS011;5028;50.974;4.968;2022-10-29T04:30:52;17.63;;;7.33;;
9974;SDS011;5028;50.974;4.968;2022-10-29T04:33:21;12.83;;;7.47;;
9974;SDS011;5028;50.974;4.968;2022-10-29T04:35:57;13.17;;;6.87;;
9974;SDS011;5028;50.974;4.968;2022-10-29T04:38:27;14.77;;;7.27;;
9974;SDS011;5028;50.974;4.968;2022-10-29T04:41:03;15.23;;;6.97;;
9974;SDS011;5028;50.974;4.968;2022-10-29T04:43:44;13.07;;;6.70;;
9974;SDS011;5028;50.974;4.968;2022-10-29T04:46:20;13.97;;;7.27;;
9974;SDS011;5028;50.974;4.968;2022-10-29T04:48:48;13.57;;;7.00;;
9974;SDS011;5028;50.974;4.968;2022-10-29T04:51:24;14.23;;;6.97;;
9974;SDS011;5028;50.974;4.968;2022-10-29T04:53:55;14.90;;;6.83;;
9974;SDS011;5028;50.974;4.968;2022-10-29T04:56:30;14.00;;;6.87;;
9974;SDS011;5028;50.974;4.968;2022-10-29T04:58:58;16.03;;;6.90;;
9974;SDS011;5028;50.974;4.968;2022-10-29T05:01:34;12.20;;;6.63;;
9974;SDS011;5028;50.974;4.968;2022-10-29T05:04:03;12.43;;;6.60;;
9974;SDS011;5028;50.974;4.968;2022-10-29T05:06:37;11.93;;;6.67;;
9974;SDS011;5028;50.974;4.968;2022-10-29T05:09:07;13.03;;;6.47;;
9974;SDS011;5028;50.974;4.968;2022-10-29T05:11:43;13.23;;;6.60;;
9974;SDS011;5028;50.974;4.968;2022-10-29T05:14:11;13.63;;;6.67;;
9974;SDS011;5028;50.974;4.968;2022-10-29T05:16:46;13.57;;;6.70;;
9974;SDS011;5028;50.974;4.968;2022-10-29T05:19:15;12.73;;;6.80;;
9974;SDS011;5028;50.974;4.968;2022-10-29T05:21:50;11.30;;;6.97;;
9974;SDS011;5028;50.974;4.968;2022-10-29T05:24:20;16.60;;;6.90;;
9974;SDS011;5028;50.974;4.968;2022-10-29T05:26:54;10.10;;;6.23;;
9974;SDS011;5028;50.974;4.968;2022-10-29T05:29:23;15.23;;;6.17;;
9974;SDS011;5028;50.974;4.968;2022-10-29T05:31:57;12.87;;;6.60;;
9974;SDS011;5028;50.974;4.968;2022-10-29T05:34:26;10.97;;;6.33;;
9974;SDS011;5028;50.974;4.968;2022-10-29T05:37:04;13.50;;;6.33;;
9974;SDS011;5028;50.974;4.968;2022-10-29T05:39:34;12.13;;;6.27;;
9974;SDS011;5028;50.974;4.968;2022-10-29T05:42:10;14.07;;;6.60;;
9974;SDS011;5028;50.974;4.968;2022-10-29T05:44:51;13.13;;;6.80;;
9974;SDS011;5028;50.974;4.968;2022-10-29T05:47:26;11.57;;;6.50;;
9974;SDS011;5028;50.974;4.968;2022-10-29T05:49:55;14.80;;;7.07;;
9974;SDS011;5028;50.974;4.968;2022-10-29T05:52:31;12.47;;;6.60;;
9974;SDS011;5028;50.974;4.968;2022-10-29T05:55:08;12.03;;;6.53;;
9974;SDS011;5028;50.974;4.968;2022-10-29T05:57:36;11.67;;;7.13;;
9974;SDS011;5028;50.974;4.968;2022-10-29T06:00:12;13.20;;;6.43;;
9974;SDS011;5028;50.974;4.968;2022-10-29T06:02:41;14.47;;;6.50;;
9974;SDS011;5028;50.974;4.968;2022-10-29T06:05:17;16.27;;;7.03;;
9974;SDS011;5028;50.974;4.968;2022-10-29T06:07:45;13.77;;;6.57;;
9974;SDS011;5028;50.974;4.968;2022-10-29T06:10:28;13.80;;;6.57;;
9974;SDS011;5028;50.974;4.968;2022-10-29T06:12:57;14.77;;;6.67;;
9974;SDS011;5028;50.974;4.968;2022-10-29T06:15:31;14.87;;;6.77;;
9974;SDS011;5028;50.974;4.968;2022-10-29T06:18:00;12.87;;;6.50;;
9974;SDS011;5028;50.974;4.968;2022-10-29T06:20:36;17.77;;;6.87;;
9974;SDS011;5028;50.974;4.968;2022-10-29T06:23:05;13.67;;;6.50;;
9974;SDS011;5028;50.974;4.968;2022-10-29T06:25:42;10.83;;;7.07;;
9974;SDS011;5028;50.974;4.968;2022-10-29T06:28:11;12.93;;;6.60;;
9974;SDS011;5028;50.974;4.968;2022-10-29T06:30:47;12.47;;;6.90;;
9974;SDS011;5028;50.974;4.968;2022-10-29T06:33:16;12.97;;;6.80;;
9974;SDS011;5028;50.974;4.968;2022-10-29T06:35:56;14.43;;;6.80;;
9974;SDS011;5028;50.974;4.968;2022-10-29T06:38:25;13.67;;;6.47;;
9974;SDS011;5028;50.974;4.968;2022-10-29T06:41:01;14.37;;;6.80;;
9974;SDS011;5028;50.974;4.968;2022-10-29T06:43:30;10.13;;;6.03;;
9974;SDS011;5028;50.974;4.968;2022-10-29T06:46:12;11.77;;;6.07;;
9974;SDS011;5028;50.974;4.968;2022-10-29T06:48:40;10.80;;;6.10;;
9974;SDS011;5028;50.974;4.968;2022-10-29T06:51:14;11.53;;;6.10;;
9974;SDS011;5028;50.974;4.968;2022-10-29T06:53:43;14.53;;;6.40;;
9974;SDS011;5028;50.974;4.968;2022-10-29T06:56:20;20.63;;;6.60;;
9974;SDS011;5028;50.974;4.968;2022-10-29T06:58:49;11.17;;;6.67;;
9974;SDS011;5028;50.974;4.968;2022-10-29T07:01:24;12.07;;;5.93;;
9974;SDS011;5028;50.974;4.968;2022-10-29T07:03:57;12.37;;;6.23;;
9974;SDS011;5028;50.974;4.968;2022-10-29T07:06:33;13.37;;;6.17;;
9974;SDS011;5028;50.974;4.968;2022-10-29T07:09:01;10.23;;;6.03;;
9974;SDS011;5028;50.974;4.968;2022-10-29T07:11:38;15.30;;;6.27;;
9974;SDS011;5028;50.974;4.968;2022-10-29T07:14:06;12.03;;;6.20;;
9974;SDS011;5028;50.974;4.968;2022-10-29T07:16:42;15.57;;;6.33;;
9974;SDS011;5028;50.974;4.968;2022-10-29T07:19:11;11.23;;;5.87;;
9974;SDS011;5028;50.974;4.968;2022-10-29T07:21:47;14.97;;;6.60;;
9974;SDS011;5028;50.974;4.968;2022-10-29T07:24:15;10.57;;;6.13;;
9974;SDS011;5028;50.974;4.968;2022-10-29T07:26:51;12.50;;;5.83;;
9974;SDS011;5028;50.974;4.968;2022-10-29T07:29:20;16.70;;;6.27;;
9974;SDS011;5028;50.974;4.968;2022-10-29T07:31:55;12.70;;;6.33;;
9974;SDS011;5028;50.974;4.968;2022-10-29T07:34:23;11.43;;;5.70;;
9974;SDS011;5028;50.974;4.968;2022-10-29T07:36:59;10.17;;;5.97;;
9974;SDS011;5028;50.974;4.968;2022-10-29T07:39:27;13.07;;;6.07;;
9974;SDS011;5028;50.974;4.968;2022-10-29T07:42:10;8.60;;;5.60;;
9974;SDS011;5028;50.974;4.968;2022-10-29T07:44:52;11.67;;;6.17;;
9974;SDS011;5028;50.974;4.968;2022-10-29T07:47:27;9.60;;;5.20;;
9974;SDS011;5028;50.974;4.968;2022-10-29T07:49:55;12.73;;;5.60;;
9974;SDS011;5028;50.974;4.968;2022-10-29T07:52:30;13.10;;;5.77;;
9974;SDS011;5028;50.974;4.968;2022-10-29T07:54:58;8.53;;;5.07;;
9974;SDS011;5028;50.974;4.968;2022-10-29T07:57:35;8.17;;;5.07;;
9974;SDS011;5028;50.974;4.968;2022-10-29T08:00:04;8.47;;;4.83;;
9974;SDS011;5028;50.974;4.968;2022-10-29T08:02:40;10.00;;;5.33;;
9974;SDS011;5028;50.974;4.968;2022-10-29T08:05:08;11.97;;;6.30;;
9974;SDS011;5028;50.974;4.968;2022-10-29T08:07:44;9.50;;;5.50;;
9974;SDS011;5028;50.974;4.968;2022-10-29T08:10:12;11.20;;;5.10;;
9974;SDS011;5028;50.974;4.968;2022-10-29T08:12:50;9.10;;;4.87;;
9974;SDS011;5028;50.974;4.968;2022-10-29T08:15:19;10.03;;;5.13;;
9974;SDS011;5028;50.974;4.968;2022-10-29T08:17:55;9.40;;;5.03;;
9974;SDS011;5028;50.974;4.968;2022-10-29T08:20:25;8.87;;;4.97;;
9974;SDS011;5028;50.974;4.968;2022-10-29T08:23:02;8.47;;;4.90;;
9974;SDS011;5028;50.974;4.968;2022-10-29T08:25:31;11.07;;;5.10;;
9974;SDS011;5028;50.974;4.968;2022-10-29T08:28:08;12.23;;;5.27;;
9974;SDS011;5028;50.974;4.968;2022-10-29T08:30:37;10.43;;;4.97;;
9974;SDS011;5028;50.974;4.968;2022-10-29T08:33:13;14.53;;;5.20;;
9974;SDS011;5028;50.974;4.968;2022-10-29T08:35:41;11.93;;;4.93;;
9974;SDS011;5028;50.974;4.968;2022-10-29T08:38:17;10.90;;;4.80;;
9974;SDS011;5028;50.974;4.968;2022-10-29T08:40:48;11.10;;;4.90;;
9974;SDS011;5028;50.974;4.968;2022-10-29T08:43:49;10.50;;;4.83;;
9974;SDS011;5028;50.974;4.968;2022-10-29T08:46:39;9.97;;;4.37;;
9974;SDS011;5028;50.974;4.968;2022-10-29T08:49:19;8.73;;;4.57;;
9974;SDS011;5028;50.974;4.968;2022-10-29T08:51:53;13.63;;;4.83;;
9974;SDS011;5028;50.974;4.968;2022-10-29T08:54:33;10.17;;;4.50;;
9974;SDS011;5028;50.974;4.968;2022-10-29T08:57:06;6.80;;;4.80;;
9974;SDS011;5028;50.974;4.968;2022-10-29T08:59:55;9.27;;;5.03;;
9974;SDS011;5028;50.974;4.968;2022-10-29T09:02:42;9.17;;;4.60;;
9974;SDS011;5028;50.974;4.968;2022-10-29T09:05:17;9.63;;;4.97;;
9974;SDS011;5028;50.974;4.968;2022-10-29T09:07:57;8.17;;;4.23;;
9974;SDS011;5028;50.974;4.968;2022-10-29T09:10:49;12.23;;;4.93;;
9974;SDS011;5028;50.974;4.968;2022-10-29T09:13:23;8.43;;;4.30;;
9974;SDS011;5028;50.974;4.968;2022-10-29T09:16:22;9.80;;;4.47;;
9974;SDS011;5028;50.974;4.968;2022-10-29T09:19:19;8.40;;;4.60;;
9974;SDS011;5028;50.974;4.968;2022-10-29T09:22:01;11.70;;;4.13;;
9974;SDS011;5028;50.974;4.968;2022-10-29T09:24:43;10.80;;;4.50;;
9974;SDS011;5028;50.974;4.968;2022-10-29T09:27:18;8.07;;;4.30;;
9974;SDS011;5028;50.974;4.968;2022-10-29T09:30:10;9.70;;;4.00;;
9974;SDS011;5028;50.974;4.968;2022-10-29T09:32:45;11.90;;;4.43;;
9974;SDS011;5028;50.974;4.968;2022-10-29T09:35:32;9.33;;;4.33;;
9974;SDS011;5028;50.974;4.968;2022-10-29T09:38:06;10.57;;;4.20;;
9974;SDS011;5028;50.974;4.968;2022-10-29T09:40:48;8.60;;;4.20;;
9974;SDS011;5028;50.974;4.968;2022-10-29T09:43:18;8.03;;;4.07;;
9974;SDS011;5028;50.974;4.968;2022-10-29T09:46:14;9.97;;;3.87;;
9974;SDS011;5028;50.974;4.968;2022-10-29T09:48:52;13.63;;;4.40;;
9974;SDS011;5028;50.974;4.968;2022-10-29T09:51:36;9.10;;;4.10;;
9974;SDS011;5028;50.974;4.968;2022-10-29T09:54:09;6.80;;;3.70;;
9974;SDS011;5028;50.974;4.968;2022-10-29T09:56:45;12.93;;;4.10;;
9974;SDS011;5028;50.974;4.968;2022-10-29T09:59:23;11.73;;;4.23;;
9974;SDS011;5028;50.974;4.968;2022-10-29T10:02:02;11.10;;;3.70;;
9974;SDS011;5028;50.974;4.968;2022-10-29T10:04:46;6.93;;;3.80;;
9974;SDS011;5028;50.974;4.968;2022-10-29T10:07:24;11.17;;;4.17;;
9974;SDS011;5028;50.974;4.968;2022-10-29T10:09:53;9.30;;;4.13;;
9974;SDS011;5028;50.974;4.968;2022-10-29T10:12:42;10.77;;;4.20;;
9974;SDS011;5028;50.974;4.968;2022-10-29T10:15:18;11.83;;;4.40;;
9974;SDS011;5028;50.974;4.968;2022-10-29T10:17:59;11.67;;;4.13;;
9974;SDS011;5028;50.974;4.968;2022-10-29T10:20:32;10.33;;;4.40;;
9974;SDS011;5028;50.974;4.968;2022-10-29T10:23:19;11.27;;;4.47;;
9974;SDS011;5028;50.974;4.968;2022-10-29T10:25:53;8.43;;;3.93;;
9974;SDS011;5028;50.974;4.968;2022-10-29T10:28:34;10.37;;;4.17;;
9974;SDS011;5028;50.974;4.968;2022-10-29T10:31:06;12.40;;;3.93;;
9974;SDS011;5028;50.974;4.968;2022-10-29T10:33:50;9.43;;;3.53;;
9974;SDS011;5028;50.974;4.968;2022-10-29T10:36:22;13.30;;;4.53;;
9974;SDS011;5028;50.974;4.968;2022-10-29T10:38:59;8.57;;;3.80;;
9974;SDS011;5028;50.974;4.968;2022-10-29T10:41:30;9.67;;;3.80;;
9974;SDS011;5028;50.974;4.968;2022-10-29T10:44:13;15.50;;;4.33;;
9974;SDS011;5028;50.974;4.968;2022-10-29T10:46:42;12.30;;;4.30;;
9974;SDS011;5028;50.974;4.968;2022-10-29T10:49:19;10.07;;;3.77;;
9974;SDS011;5028;50.974;4.968;2022-10-29T10:51:57;9.83;;;3.73;;
9974;SDS011;5028;50.974;4.968;2022-10-29T10:54:35;10.67;;;3.47;;
9974;SDS011;5028;50.974;4.968;2022-10-29T10:57:17;13.70;;;4.20;;
9974;SDS011;5028;50.974;4.968;2022-10-29T10:59:57;9.47;;;4.03;;
9974;SDS011;5028;50.974;4.968;2022-10-29T11:02:32;9.80;;;3.83;;
9974;SDS011;5028;50.974;4.968;2022-10-29T11:05:14;11.23;;;4.63;;
9974;SDS011;5028;50.974;4.968;2022-10-29T11:07:51;10.30;;;3.53;;
9974;SDS011;5028;50.974;4.968;2022-10-29T11:10:30;10.47;;;3.73;;
9974;SDS011;5028;50.974;4.968;2022-10-29T11:13:04;9.80;;;3.60;;
9974;SDS011;5028;50.974;4.968;2022-10-29T11:15:46;11.70;;;3.50;;
9974;SDS011;5028;50.974;4.968;2022-10-29T11:18:23;11.53;;;3.70;;
9974;SDS011;5028;50.974;4.968;2022-10-29T11:21:03;9.73;;;4.20;;
9974;SDS011;5028;50.974;4.968;2022-10-29T11:23:41;12.43;;;4.30;;
9974;SDS011;5028;50.974;4.968;2022-10-29T11:26:24;11.13;;;3.47;;
9974;SDS011;5028;50.974;4.968;2022-10-29T11:29:01;10.23;;;3.73;;
9974;SDS011;5028;50.974;4.968;2022-10-29T11:31:44;11.47;;;3.83;;
9974;SDS011;5028;50.974;4.968;2022-10-29T11:34:20;9.83;;;3.67;;
9974;SDS011;5028;50.974;4.968;2022-10-29T11:36:59;10.47;;;3.53;;
9974;SDS011;5028;50.974;4.968;2022-10-29T11:39:37;6.60;;;3.43;;
9974;SDS011;5028;50.974;4.968;2022-10-29T11:42:18;9.90;;;4.10;;
9974;SDS011;5028;50.974;4.968;2022-10-29T11:45:00;11.27;;;3.30;;
9974;SDS011;5028;50.974;4.968;2022-10-29T11:47:38;12.40;;;3.90;;
9974;SDS011;5028;50.974;4.968;2022-10-29T11:50:24;12.00;;;3.47;;
9974;SDS011;5028;50.974;4.968;2022-10-29T11:53:06;9.87;;;3.27;;
9974;SDS011;5028;50.974;4.968;2022-10-29T11:55:47;11.67;;;3.40;;
9974;SDS011;5028;50.974;4.968;2022-10-29T11:58:29;9.47;;;3.40;;
9974;SDS011;5028;50.974;4.968;2022-10-29T12:01:08;10.47;;;3.50;;
9974;SDS011;5028;50.974;4.968;2022-10-29T12:03:51;8.63;;;3.50;;
9974;SDS011;5028;50.974;4.968;2022-10-29T12:06:35;8.23;;;3.30;;
9974;SDS011;5028;50.974;4.968;2022-10-29T12:09:21;9.13;;;3.63;;
9974;SDS011;5028;50.974;4.968;2022-10-29T12:12:08;10.57;;;3.77;;
9974;SDS011;5028;50.974;4.968;2022-10-29T12:14:50;12.40;;;3.33;;
9974;SDS011;5028;50.974;4.968;2022-10-29T12:17:27;10.17;;;3.60;;
9974;SDS011;5028;50.974;4.968;2022-10-29T12:20:09;10.07;;;3.07;;
9974;SDS011;5028;50.974;4.968;2022-10-29T12:22:50;7.70;;;3.40;;
9974;SDS011;5028;50.974;4.968;2022-10-29T12:25:38;10.90;;;3.53;;
9974;SDS011;5028;50.974;4.968;2022-10-29T12:28:19;8.97;;;3.40;;
9974;SDS011;5028;50.974;4.968;2022-10-29T12:31:05;10.47;;;3.50;;
9974;SDS011;5028;50.974;4.968;2022-10-29T12:33:43;8.60;;;3.17;;
9974;SDS011;5028;50.974;4.968;2022-10-29T12:36:27;12.57;;;3.43;;
9974;SDS011;5028;50.974;4.968;2022-10-29T12:39:01;8.07;;;3.20;;
9974;SDS011;5028;50.974;4.968;2022-10-29T12:41:38;9.33;;;3.33;;
9974;SDS011;5028;50.974;4.968;2022-10-29T12:44:12;11.47;;;3.63;;
9974;SDS011;5028;50.974;4.968;2022-10-29T12:47:01;9.60;;;3.40;;
9974;SDS011;5028;50.974;4.968;2022-10-29T12:49:39;9.17;;;3.50;;
9974;SDS011;5028;50.974;4.968;2022-10-29T12:52:27;8.40;;;3.53;;
9974;SDS011;5028;50.974;4.968;2022-10-29T12:55:09;10.20;;;3.60;;
9974;SDS011;5028;50.974;4.968;2022-10-29T12:57:40;8.37;;;3.43;;
9974;SDS011;5028;50.974;4.968;2022-10-29T13:00:42;9.57;;;3.33;;
9974;SDS011;5028;50.974;4.968;2022-10-29T13:06:46;12.43;;;3.50;;
9974;SDS011;5028;50.974;4.968;2022-10-29T13:09:23;9.77;;;3.30;;
9974;SDS011;5028;50.974;4.968;2022-10-29T13:11:59;12.33;;;3.80;;
9974;SDS011;5028;50.974;4.968;2022-10-29T13:14:39;9.73;;;3.07;;
9974;SDS011;5028;50.974;4.968;2022-10-29T13:17:25;7.67;;;2.83;;
9974;SDS011;5028;50.974;4.968;2022-10-29T13:19:59;14.57;;;3.60;;
9974;SDS011;5028;50.974;4.968;2022-10-29T13:22:50;10.83;;;3.57;;
9974;SDS011;5028;50.974;4.968;2022-10-29T13:43:41;12.10;;;3.57;;
9974;SDS011;5028;50.974;4.968;2022-10-29T13:46:38;10.27;;;3.43;;
9974;SDS011;5028;50.974;4.968;2022-10-29T13:49:14;10.87;;;3.30;;
9974;SDS011;5028;50.974;4.968;2022-10-29T13:51:55;12.67;;;3.00;;
9974;SDS011;5028;50.974;4.968;2022-10-29T13:54:37;9.60;;;3.17;;
9974;SDS011;5028;50.974;4.968;2022-10-29T13:57:16;10.20;;;3.40;;
9974;SDS011;5028;50.974;4.968;2022-10-29T13:59:49;7.80;;;3.40;;
9974;SDS011;5028;50.974;4.968;2022-10-29T14:02:29;8.77;;;3.23;;
9974;SDS011;5028;50.974;4.968;2022-10-29T14:05:08;13.07;;;3.53;;
9974;SDS011;5028;50.974;4.968;2022-10-29T14:07:53;9.23;;;3.23;;
9974;SDS011;5028;50.974;4.968;2022-10-29T14:10:25;12.40;;;3.20;;
9974;SDS011;5028;50.974;4.968;2022-10-29T14:13:06;10.87;;;3.47;;
9974;SDS011;5028;50.974;4.968;2022-10-29T14:15:59;10.23;;;3.20;;
9974;SDS011;5028;50.974;4.968;2022-10-29T14:18:37;11.03;;;3.43;;
9974;SDS011;5028;50.974;4.968;2022-10-29T14:21:11;9.23;;;3.30;;
9974;SDS011;5028;50.974;4.968;2022-10-29T14:23:57;10.73;;;3.33;;
9974;SDS011;5028;50.974;4.968;2022-10-29T14:26:27;13.87;;;3.73;;
9974;SDS011;5028;50.974;4.968;2022-10-29T14:29:12;8.20;;;3.20;;
9974;SDS011;5028;50.974;4.968;2022-10-29T14:31:45;11.87;;;3.50;;
9974;SDS011;5028;50.974;4.968;2022-10-29T14:34:21;9.40;;;3.57;;
9974;SDS011;5028;50.974;4.968;2022-10-29T14:36:53;9.67;;;3.60;;
9974;SDS011;5028;50.974;4.968;2022-10-29T14:39:37;11.20;;;3.47;;
9974;SDS011;5028;50.974;4.968;2022-10-29T14:42:25;10.17;;;3.50;;
9974;SDS011;5028;50.974;4.968;2022-10-29T14:45:03;9.63;;;3.40;;
9974;SDS011;5028;50.974;4.968;2022-10-29T14:47:46;11.63;;;3.30;;
9974;SDS011;5028;50.974;4.968;2022-10-29T14:50:24;8.27;;;3.23;;
9974;SDS011;5028;50.974;4.968;2022-10-29T14:52:54;10.63;;;3.30;;
9974;SDS011;5028;50.974;4.968;2022-10-29T14:55:32;5.57;;;3.27;;
9974;SDS011;5028;50.974;4.968;2022-10-29T14:58:03;10.17;;;3.07;;
9974;SDS011;5028;50.974;4.968;2022-10-29T15:00:48;10.80;;;3.60;;
9974;SDS011;5028;50.974;4.968;2022-10-29T15:03:21;10.70;;;3.77;;
9974;SDS011;5028;50.974;4.968;2022-10-29T15:06:09;9.07;;;3.27;;
9974;SDS011;5028;50.974;4.968;2022-10-29T15:08:40;8.07;;;3.67;;
9974;SDS011;5028;50.974;4.968;2022-10-29T15:14:23;10.07;;;3.60;;
9974;SDS011;5028;50.974;4.968;2022-10-29T15:16:59;10.40;;;3.60;;
9974;SDS011;5028;50.974;4.968;2022-10-29T15:19:33;9.20;;;3.97;;
9974;SDS011;5028;50.974;4.968;2022-10-29T15:22:08;6.90;;;3.20;;
9974;SDS011;5028;50.974;4.968;2022-10-29T15:24:37;10.40;;;3.47;;
9974;SDS011;5028;50.974;4.968;2022-10-29T15:27:14;9.23;;;3.30;;
9974;SDS011;5028;50.974;4.968;2022-10-29T15:29:44;11.37;;;4.10;;
9974;SDS011;5028;50.974;4.968;2022-10-29T15:32:21;10.90;;;3.37;;
9974;SDS011;5028;50.974;4.968;2022-10-29T15:34:55;10.07;;;3.47;;
9974;SDS011;5028;50.974;4.968;2022-10-29T15:37:39;9.57;;;3.40;;
9974;SDS011;5028;50.974;4.968;2022-10-29T15:40:11;8.47;;;3.80;;
9974;SDS011;5028;50.974;4.968;2022-10-29T15:42:55;10.87;;;3.80;;
9974;SDS011;5028;50.974;4.968;2022-10-29T15:46:10;8.13;;;3.60;;
9974;SDS011;5028;50.974;4.968;2022-10-29T15:48:47;10.90;;;3.53;;
9974;SDS011;5028;50.974;4.968;2022-10-29T15:51:15;12.77;;;4.03;;
9974;SDS011;5028;50.974;4.968;2022-10-29T15:53:51;10.10;;;3.90;;
9974;SDS011;5028;50.974;4.968;2022-10-29T15:56:22;7.87;;;3.53;;
9974;SDS011;5028;50.974;4.968;2022-10-29T15:59:00;10.40;;;3.60;;
9974;SDS011;5028;50.974;4.968;2022-10-29T16:01:28;12.17;;;4.03;;
9974;SDS011;5028;50.974;4.968;2022-10-29T16:04:04;7.53;;;3.30;;
9974;SDS011;5028;50.974;4.968;2022-10-29T16:06:32;8.53;;;3.57;;
9974;SDS011;5028;50.974;4.968;2022-10-29T16:09:08;10.27;;;4.10;;
9974;SDS011;5028;50.974;4.968;2022-10-29T16:11:43;11.17;;;3.93;;
9974;SDS011;5028;50.974;4.968;2022-10-29T16:14:20;10.27;;;4.07;;
9974;SDS011;5028;50.974;4.968;2022-10-29T16:16:48;9.77;;;3.53;;
9974;SDS011;5028;50.974;4.968;2022-10-29T16:19:23;9.03;;;3.80;;
9974;SDS011;5028;50.974;4.968;2022-10-29T16:21:52;7.47;;;3.33;;
9974;SDS011;5028;50.974;4.968;2022-10-29T16:24:30;11.47;;;3.73;;
9974;SDS011;5028;50.974;4.968;2022-10-29T16:27:00;9.73;;;4.23;;
9974;SDS011;5028;50.974;4.968;2022-10-29T16:29:37;9.70;;;4.00;;
9974;SDS011;5028;50.974;4.968;2022-10-29T16:32:07;11.97;;;4.53;;